Time;durP1;ratioP1;P1;durP2;ratioP2;P2;SDS_P1;SDS_P2;PMS_P1;PMS_P2;Temp;Humidity;BMP_temperature;BMP_pressure;BME280_temperature;BME280_humidity;BME280_pressure;Samples;Min_cycle;Max_cycle;Signal;HPM_P1;HPM_P2
2022/04/25 00:00:24;;;;;;;13.57;10.45;;;14.30;54.00;;;;;;4984759;28;20406;-44
2022/04/25 00:02:53;;;;;;;14.25;10.02;;;14.30;54.10;;;;;;4979301;28;20066;-45
2022/04/25 00:05:20;;;;;;;13.75;10.02;;;14.40;54.60;;;;;;4985143;28;20046;-45
2022/04/25 00:07:47;;;;;;;11.73;9.45;;;14.40;53.80;;;;;;4981443;28;20057;-44
2022/04/25 00:10:15;;;;;;;11.60;10.00;;;14.30;53.70;;;;;;4984659;28;20502;-44
2022/04/25 00:12:42;;;;;;;12.55;10.02;;;14.40;53.60;;;;;;4979751;28;20058;-44
2022/04/25 00:15:11;;;;;;;11.20;9.23;;;14.40;53.40;;;;;;4980577;28;20067;-44
2022/04/25 00:17:38;;;;;;;13.02;9.98;;;14.30;53.40;;;;;;4982574;28;20054;-45
2022/04/25 00:20:10;;;;;;;11.77;9.60;;;14.40;53.30;;;;;;4983936;28;20116;-45
2022/04/25 00:22:37;;;;;;;12.63;9.27;;;14.30;53.10;;;;;;4978556;28;20533;-43
2022/04/25 00:25:06;;;;;;;12.48;9.82;;;14.40;53.10;;;;;;4979676;28;20424;-44
2022/04/25 00:27:34;;;;;;;9.63;8.63;;;14.30;53.10;;;;;;4983076;28;20058;-44
2022/04/25 00:30:01;;;;;;;15.88;11.48;;;14.30;53.00;;;;;;4980553;28;20069;-44
2022/04/25 00:32:29;;;;;;;13.95;11.13;;;14.30;53.30;;;;;;4980978;28;20054;-43
2022/04/25 00:34:56;;;;;;;14.15;10.95;;;14.30;53.50;;;;;;4981475;28;20054;-45
2022/04/25 00:37:25;;;;;;;12.77;10.85;;;14.30;53.60;;;;;;4982888;28;20058;-45
2022/04/25 00:39:52;;;;;;;13.38;10.20;;;14.30;53.70;;;;;;4982426;28;20054;-45
2022/04/25 00:42:20;;;;;;;13.55;10.90;;;14.30;54.10;;;;;;4981995;28;20569;-45
2022/04/25 00:44:48;;;;;;;13.95;10.38;;;14.20;53.70;;;;;;4981520;28;20057;-46
2022/04/25 00:47:15;;;;;;;12.10;9.65;;;14.20;53.70;;;;;;4984421;28;20053;-46
2022/04/25 00:49:43;;;;;;;11.73;9.48;;;14.20;53.70;;;;;;4981395;28;20054;-45
2022/04/25 00:52:12;;;;;;;13.10;9.88;;;14.20;53.70;;;;;;4978169;28;20061;-45
2022/04/25 00:54:41;;;;;;;15.10;11.40;;;14.10;53.60;;;;;;4981839;28;20046;-44
2022/04/25 00:57:09;;;;;;;13.73;10.27;;;14.10;53.70;;;;;;4979158;28;20050;-45
2022/04/25 00:59:37;;;;;;;15.52;10.48;;;14.10;53.70;;;;;;4980273;28;20058;-44
2022/04/25 01:02:05;;;;;;;11.65;9.45;;;14.10;53.70;;;;;;4978345;28;20512;-46
2022/04/25 01:04:33;;;;;;;10.68;8.65;;;14.10;53.60;;;;;;4981483;28;20050;-48
2022/04/25 01:07:00;;;;;;;10.77;8.25;;;14.10;53.50;;;;;;4982853;28;20433;-45
2022/04/25 01:09:28;;;;;;;10.70;8.38;;;14.10;53.50;;;;;;4982611;28;20478;-44
2022/04/25 01:11:58;;;;;;;14.55;10.52;;;14.10;53.50;;;;;;4980596;28;20515;-45
2022/04/25 01:14:26;;;;;;;11.68;8.70;;;14.10;53.60;;;;;;4982522;28;20061;-45
2022/04/25 01:16:54;;;;;;;11.32;8.95;;;14.10;53.40;;;;;;4983364;28;20046;-47
2022/04/25 01:19:21;;;;;;;11.90;8.45;;;14.00;53.30;;;;;;4979216;28;20046;-44
2022/04/25 01:21:56;;;;;;;11.57;8.75;;;14.00;53.30;;;;;;4979488;28;20054;-47
2022/04/25 01:27:16;;;;;;;13.40;10.02;;;14.00;53.40;;;;;;4982408;28;20517;-45
2022/04/25 01:29:44;;;;;;;9.90;8.60;;;14.00;53.50;;;;;;4981198;28;20065;-45
2022/04/25 01:32:12;;;;;;;13.25;9.07;;;14.00;53.40;;;;;;4975341;28;20489;-47
2022/04/25 01:34:40;;;;;;;14.07;10.07;;;14.00;53.40;;;;;;4976222;28;20046;-44
2022/04/25 01:37:08;;;;;;;15.27;11.63;;;14.00;53.60;;;;;;4981760;28;20050;-45
2022/04/25 01:39:38;;;;;;;19.65;11.77;;;13.90;54.00;;;;;;4980086;28;20055;-44
2022/04/25 01:42:07;;;;;;;17.95;12.35;;;13.70;54.60;;;;;;4978437;28;20050;-45
2022/04/25 01:44:35;;;;;;;16.38;11.63;;;13.60;55.30;;;;;;4979481;28;20498;-44
2022/04/25 01:47:03;;;;;;;16.63;12.52;;;13.40;56.10;;;;;;4978702;28;20062;-44
2022/04/25 01:49:32;;;;;;;14.40;10.43;;;13.30;56.60;;;;;;4980106;28;20055;-46
2022/04/25 01:52:02;;;;;;;13.45;9.05;;;13.10;57.10;;;;;;4980003;28;20687;-45
2022/04/25 01:54:32;;;;;;;16.13;8.57;;;12.80;56.70;;;;;;4981416;28;20054;-45
2022/04/25 01:57:02;;;;;;;11.02;7.63;;;12.50;57.00;;;;;;4982183;28;20054;-44
2022/04/25 01:59:30;;;;;;;10.15;7.00;;;12.30;57.00;;;;;;4982189;28;20065;-45
2022/04/25 02:01:58;;;;;;;10.73;7.30;;;12.10;57.30;;;;;;4978334;28;20046;-44
2022/04/25 02:04:25;;;;;;;8.15;6.47;;;11.90;57.70;;;;;;4979603;28;20442;-44
2022/04/25 02:06:53;;;;;;;8.18;6.28;;;11.80;57.80;;;;;;4979930;28;20058;-43
2022/04/25 02:09:21;;;;;;;8.57;6.45;;;11.60;58.10;;;;;;4979979;28;20406;-44
2022/04/25 02:11:48;;;;;;;10.25;5.45;;;11.50;58.50;;;;;;4976967;28;20517;-44
2022/04/25 02:14:17;;;;;;;7.47;5.97;;;11.40;58.60;;;;;;4981435;28;20077;-44
2022/04/25 02:16:46;;;;;;;6.50;5.30;;;11.30;58.80;;;;;;4978106;28;20054;-46
2022/04/25 02:19:23;;;;;;;6.97;4.90;;;11.10;58.90;;;;;;4980031;28;20062;-46
2022/04/25 02:21:51;;;;;;;5.82;4.20;;;11.00;59.20;;;;;;4978856;28;20050;-47
2022/04/25 02:24:18;;;;;;;8.00;4.20;;;10.90;59.40;;;;;;4978852;28;20065;-46
2022/04/25 02:26:46;;;;;;;8.73;4.22;;;10.80;59.70;;;;;;4981454;28;20054;-45
2022/04/25 02:29:13;;;;;;;5.80;4.03;;;10.70;59.80;;;;;;4979846;28;20058;-46
2022/04/25 02:31:42;;;;;;;4.78;3.70;;;10.60;59.60;;;;;;4978242;28;20061;-44
2022/04/25 02:34:09;;;;;;;6.60;2.97;;;10.50;59.80;;;;;;4978080;28;20062;-44
2022/04/25 02:36:37;;;;;;;4.47;3.25;;;10.50;59.90;;;;;;4978965;28;20061;-43
2022/04/25 02:39:04;;;;;;;4.35;2.70;;;10.40;60.20;;;;;;4981581;28;20058;-45
2022/04/25 02:41:32;;;;;;;3.75;2.95;;;10.40;60.00;;;;;;4976470;28;20054;-45
2022/04/25 02:43:59;;;;;;;3.88;2.65;;;10.40;60.00;;;;;;4980486;28;20054;-44
2022/04/25 02:46:27;;;;;;;3.30;2.85;;;10.40;60.20;;;;;;4979629;28;20061;-44
2022/04/25 02:48:56;;;;;;;4.15;3.03;;;10.40;60.00;;;;;;4978750;28;20057;-45
2022/04/25 02:51:24;;;;;;;3.47;2.55;;;10.50;60.00;;;;;;4976682;28;20050;-45
2022/04/25 02:53:52;;;;;;;2.45;1.88;;;10.50;59.70;;;;;;4978223;28;20487;-43
2022/04/25 02:56:19;;;;;;;2.63;2.15;;;10.60;59.70;;;;;;4978101;28;20064;-44
2022/04/25 02:58:47;;;;;;;3.60;2.53;;;10.60;59.40;;;;;;4976900;28;20058;-45
2022/04/25 03:01:14;;;;;;;3.60;2.40;;;10.70;59.20;;;;;;4974881;28;20534;-45
2022/04/25 03:03:41;;;;;;;3.22;2.28;;;10.70;59.00;;;;;;4977252;28;20046;-44
2022/04/25 03:06:11;;;;;;;1.85;1.73;;;10.80;58.90;;;;;;4979174;28;20494;-46
2022/04/25 03:08:40;;;;;;;2.13;1.92;;;10.90;58.90;;;;;;4979879;28;20054;-43
2022/04/25 03:11:09;;;;;;;5.45;2.25;;;10.90;58.80;;;;;;4978451;28;20545;-44
2022/04/25 03:13:38;;;;;;;2.92;2.08;;;11.00;58.80;;;;;;4977198;28;20042;-44
2022/04/25 03:16:07;;;;;;;2.72;2.25;;;11.10;58.60;;;;;;4979955;28;20506;-43
2022/04/25 03:18:35;;;;;;;4.88;2.13;;;11.10;58.40;;;;;;4977508;28;20058;-43
2022/04/25 03:21:03;;;;;;;3.28;1.92;;;11.20;58.20;;;;;;4978399;28;20062;-46
2022/04/25 03:23:32;;;;;;;2.75;2.25;;;11.20;58.00;;;;;;4976973;28;20050;-46
2022/04/25 03:25:59;;;;;;;3.33;2.28;;;11.20;58.10;;;;;;4979883;28;20498;-43
2022/04/25 03:28:26;;;;;;;2.65;2.20;;;11.30;57.90;;;;;;4975814;28;20071;-44
2022/04/25 03:30:54;;;;;;;2.83;2.40;;;11.30;57.80;;;;;;4978565;28;20050;-44
2022/04/25 03:33:22;;;;;;;5.47;2.78;;;11.30;57.70;;;;;;4972662;28;20057;-44
2022/04/25 03:35:49;;;;;;;2.97;2.38;;;11.40;57.70;;;;;;4980248;28;20062;-43
2022/04/25 03:38:18;;;;;;;3.90;2.40;;;11.50;57.60;;;;;;4977701;28;20069;-45
2022/04/25 03:40:47;;;;;;;2.72;2.35;;;11.50;57.90;;;;;;4980888;28;20076;-43
2022/04/25 03:43:15;;;;;;;2.95;2.60;;;11.60;57.40;;;;;;4976980;28;20073;-45
2022/04/25 03:45:43;;;;;;;3.33;2.70;;;11.60;57.30;;;;;;4981359;28;20053;-43
2022/04/25 03:48:11;;;;;;;4.50;2.47;;;11.60;57.10;;;;;;4980459;28;20424;-43
2022/04/25 03:50:38;;;;;;;4.40;2.45;;;11.60;57.10;;;;;;4979275;28;20062;-48
2022/04/25 03:53:07;;;;;;;5.70;3.00;;;11.60;57.00;;;;;;4979729;28;20057;-44
2022/04/25 03:58:22;;;;;;;2.72;2.42;;;11.70;56.80;;;;;;4986099;28;20057;-45
2022/04/25 04:00:50;;;;;;;2.70;2.28;;;11.70;56.80;;;;;;4980838;28;20046;-46
2022/04/25 04:03:18;;;;;;;4.65;3.15;;;11.70;56.70;;;;;;4978204;28;20054;-44
2022/04/25 04:05:46;;;;;;;4.35;3.10;;;11.70;56.80;;;;;;4980575;28;20058;-44
2022/04/25 04:08:14;;;;;;;4.00;2.75;;;11.70;56.70;;;;;;4980471;28;20418;-44
2022/04/25 04:10:41;;;;;;;5.10;3.10;;;11.70;56.80;;;;;;4976894;28;20766;-43
2022/04/25 04:13:09;;;;;;;3.63;2.75;;;11.80;56.90;;;;;;4978602;28;20054;-44
2022/04/25 04:15:38;;;;;;;3.03;2.72;;;11.80;56.80;;;;;;4977623;28;20054;-45
2022/04/25 04:18:06;;;;;;;6.68;3.13;;;11.80;56.80;;;;;;4975077;28;20624;-44
2022/04/25 04:20:34;;;;;;;5.95;2.60;;;11.80;56.80;;;;;;4980592;28;20525;-46
2022/04/25 04:23:02;;;;;;;5.20;3.05;;;11.80;56.90;;;;;;4979802;28;20069;-44
2022/04/25 04:25:30;;;;;;;3.35;2.70;;;11.80;56.90;;;;;;4978939;28;20054;-44
2022/04/25 04:27:58;;;;;;;4.03;3.05;;;11.80;56.90;;;;;;4981653;28;20062;-43
2022/04/25 04:30:25;;;;;;;3.20;2.75;;;11.80;57.00;;;;;;4982394;28;20069;-43
2022/04/25 04:32:54;;;;;;;4.35;2.75;;;11.80;57.20;;;;;;4982516;28;20058;-47
2022/04/25 04:38:03;;;;;;;4.45;3.20;;;11.90;57.20;;;;;;4983055;28;20422;-44
2022/04/25 04:40:31;;;;;;;4.65;3.50;;;11.90;57.30;;;;;;4983891;28;20061;-45
2022/04/25 04:42:59;;;;;;;5.60;3.22;;;11.90;57.30;;;;;;4982972;28;20051;-43
2022/04/25 04:45:27;;;;;;;4.88;3.38;;;11.90;57.40;;;;;;4979746;28;20058;-43
2022/04/25 04:47:56;;;;;;;4.13;3.08;;;11.90;57.30;;;;;;4981359;28;20069;-45
2022/04/25 04:50:24;;;;;;;4.53;3.65;;;11.90;57.40;;;;;;4980478;28;20058;-44
2022/04/25 04:52:54;;;;;;;5.82;3.53;;;11.90;57.50;;;;;;4979804;28;20065;-48
2022/04/25 04:55:22;;;;;;;4.90;3.78;;;11.90;57.60;;;;;;4983151;28;20066;-44
2022/04/25 04:57:50;;;;;;;6.88;3.67;;;11.90;57.50;;;;;;4983637;28;20050;-44
2022/04/25 05:00:18;;;;;;;9.98;3.90;;;11.80;57.50;;;;;;4980823;28;20054;-44
2022/04/25 05:02:46;;;;;;;4.00;3.55;;;11.80;57.60;;;;;;4978824;28;20054;-45
2022/04/25 05:05:15;;;;;;;5.65;3.60;;;11.80;57.60;;;;;;4980563;28;20062;-48
2022/04/25 05:07:43;;;;;;;7.25;4.10;;;11.80;57.70;;;;;;4980564;28;20046;-44
2022/04/25 05:10:11;;;;;;;4.90;3.83;;;11.80;57.80;;;;;;4980573;28;20055;-45
2022/04/25 05:12:47;;;;;;;5.47;4.05;;;11.80;57.90;;;;;;4980662;28;20061;-43
2022/04/25 05:15:14;;;;;;;5.25;3.50;;;11.80;58.00;;;;;;4983611;28;20510;-44
2022/04/25 05:17:43;;;;;;;6.25;3.72;;;11.80;57.90;;;;;;4982472;28;20291;-44
2022/04/25 05:20:12;;;;;;;5.78;3.38;;;11.80;58.00;;;;;;4980944;28;20057;-44
2022/04/25 05:22:44;;;;;;;7.28;4.10;;;11.80;58.00;;;;;;4982136;28;20047;-44
2022/04/25 05:25:14;;;;;;;8.25;3.67;;;11.80;58.00;;;;;;4982652;28;20054;-44
2022/04/25 05:27:43;;;;;;;5.43;3.72;;;11.80;58.00;;;;;;4982368;28;20058;-43
2022/04/25 05:30:11;;;;;;;13.73;5.40;;;11.80;58.10;;;;;;4981455;28;20417;-44
2022/04/25 05:32:46;;;;;;;21.45;8.63;;;11.90;58.20;;;;;;4979147;28;20058;-46
2022/04/25 05:35:15;;;;;;;11.30;5.32;;;11.90;58.40;;;;;;4981309;28;20058;-46
2022/04/25 05:37:44;;;;;;;14.15;4.82;;;11.90;58.20;;;;;;4982883;28;20130;-45
2022/04/25 05:40:13;;;;;;;6.70;4.32;;;11.90;58.10;;;;;;4982911;28;20085;-44
2022/04/25 05:42:42;;;;;;;6.55;3.78;;;11.90;58.10;;;;;;4981438;28;20080;-43
2022/04/25 05:45:10;;;;;;;6.20;4.50;;;11.90;58.10;;;;;;4982058;28;20046;-44
2022/04/25 05:47:38;;;;;;;7.70;4.22;;;11.90;58.20;;;;;;4981834;28;20046;-44
2022/04/25 05:52:57;;;;;;;5.10;3.60;;;12.00;58.20;;;;;;4986523;28;20406;-44
2022/04/25 05:55:25;;;;;;;7.63;4.93;;;12.00;58.20;;;;;;4981166;28;20414;-44
2022/04/25 05:57:52;;;;;;;6.35;4.05;;;12.00;58.20;;;;;;4978953;28;20069;-46
2022/04/25 06:00:20;;;;;;;4.70;3.97;;;12.00;58.10;;;;;;4979965;28;20057;-45
2022/04/25 06:02:48;;;;;;;5.10;4.13;;;12.10;58.10;;;;;;4977529;28;20050;-45
2022/04/25 06:05:16;;;;;;;7.60;4.57;;;12.10;58.10;;;;;;4979226;28;20552;-44
2022/04/25 06:07:45;;;;;;;6.38;4.80;;;12.10;58.10;;;;;;4978812;28;20486;-44
2022/04/25 06:10:15;;;;;;;6.35;4.57;;;12.10;58.10;;;;;;4981231;28;20050;-44
2022/04/25 06:12:44;;;;;;;6.55;4.63;;;12.10;58.10;;;;;;4977702;28;20482;-48
2022/04/25 06:15:12;;;;;;;7.13;4.97;;;12.20;58.10;;;;;;4981652;28;20513;-44
2022/04/25 06:17:40;;;;;;;5.50;4.35;;;12.10;58.10;;;;;;4981078;28;20065;-44
2022/04/25 06:20:09;;;;;;;6.50;4.22;;;12.10;58.10;;;;;;4981413;28;20062;-44
2022/04/25 06:22:38;;;;;;;10.02;5.10;;;12.20;58.20;;;;;;4977448;28;20062;-44
2022/04/25 06:25:07;;;;;;;7.57;4.38;;;12.20;58.20;;;;;;4982293;28;20054;-44
2022/04/25 06:27:36;;;;;;;6.72;5.25;;;12.20;58.20;;;;;;4979002;28;20058;-46
2022/04/25 06:30:05;;;;;;;6.05;4.60;;;12.20;58.50;;;;;;4975634;28;20062;-44
2022/04/25 06:32:33;;;;;;;8.10;4.95;;;12.30;58.50;;;;;;4980511;28;20066;-44
2022/04/25 06:35:01;;;;;;;4.55;4.05;;;12.30;58.50;;;;;;4980871;28;20050;-45
2022/04/25 06:37:28;;;;;;;5.88;4.32;;;12.30;58.50;;;;;;4981298;28;20502;-44
2022/04/25 06:39:56;;;;;;;7.60;4.80;;;12.40;58.60;;;;;;4981715;28;20054;-44
2022/04/25 06:42:25;;;;;;;5.72;4.70;;;12.40;58.60;;;;;;4980280;28;20062;-44
2022/04/25 06:44:55;;;;;;;5.45;4.53;;;12.50;58.70;;;;;;4981258;28;20486;-45
2022/04/25 06:47:22;;;;;;;5.43;4.75;;;12.50;58.70;;;;;;4980736;28;20058;-44
2022/04/25 06:49:50;;;;;;;6.80;4.93;;;12.60;58.60;;;;;;4978672;28;20050;-44
2022/04/25 06:52:17;;;;;;;5.78;4.95;;;12.70;58.60;;;;;;4979335;28;20138;-44
2022/04/25 06:54:44;;;;;;;7.45;5.40;;;12.70;58.50;;;;;;4980091;28;20069;-44
2022/04/25 06:57:12;;;;;;;9.10;5.22;;;12.80;58.50;;;;;;4980261;28;20050;-44
2022/04/25 06:59:39;;;;;;;7.30;5.30;;;12.80;58.40;;;;;;4981741;28;20054;-44
2022/04/25 07:02:10;;;;;;;6.65;4.85;;;12.90;58.40;;;;;;4979885;28;20050;-44
2022/04/25 07:04:37;;;;;;;5.88;4.85;;;12.90;58.20;;;;;;4978832;28;20058;-44
2022/04/25 07:07:05;;;;;;;7.45;5.55;;;13.00;58.20;;;;;;4981628;28;20065;-45
2022/04/25 07:09:33;;;;;;;6.50;5.50;;;13.00;58.30;;;;;;4978841;28;20057;-45
2022/04/25 07:12:01;;;;;;;8.65;6.15;;;13.00;58.00;;;;;;4977260;28;20073;-44
2022/04/25 07:14:29;;;;;;;7.10;5.45;;;13.00;58.20;;;;;;4976092;28;20126;-45
2022/04/25 07:16:59;;;;;;;8.73;6.15;;;13.00;58.30;;;;;;4979286;28;20065;-46
2022/04/25 07:19:28;;;;;;;9.20;6.47;;;12.90;58.50;;;;;;4977692;28;20054;-50
2022/04/25 07:30:11;;;;;;;7.85;6.05;;;12.60;58.50;;;;;;4984780;28;20069;-44
2022/04/25 07:32:40;;;;;;;9.45;6.43;;;12.50;58.80;;;;;;4978728;28;20054;-44
2022/04/25 07:35:09;;;;;;;11.35;6.30;;;12.40;59.20;;;;;;4977634;28;20054;-45
2022/04/25 07:37:37;;;;;;;10.13;7.60;;;12.40;59.60;;;;;;4978267;28;20411;-44
2022/04/25 07:40:08;;;;;;;7.60;6.57;;;12.30;59.60;;;;;;4979480;28;20062;-45
2022/04/25 07:42:35;;;;;;;9.35;6.78;;;12.20;60.20;;;;;;4973781;28;20050;-44
2022/04/25 07:45:03;;;;;;;9.60;7.20;;;12.00;60.40;;;;;;4979517;28;20418;-44
2022/04/25 07:47:31;;;;;;;11.00;7.80;;;11.90;60.70;;;;;;4977792;28;20069;-44
2022/04/25 07:49:59;;;;;;;9.70;7.72;;;11.90;61.40;;;;;;4977302;28;20067;-45
2022/04/25 07:52:28;;;;;;;9.90;6.90;;;11.80;62.10;;;;;;4976044;28;20490;-44
2022/04/25 07:54:56;;;;;;;12.40;7.15;;;11.70;62.40;;;;;;4979257;28;20398;-46
2022/04/25 07:57:24;;;;;;;11.65;7.53;;;11.60;62.50;;;;;;4979960;28;20062;-47
2022/04/25 07:59:52;;;;;;;9.43;6.97;;;11.60;62.70;;;;;;4979866;28;20062;-44
2022/04/25 08:02:20;;;;;;;10.70;8.20;;;11.60;62.70;;;;;;4977339;28;20411;-44
2022/04/25 08:04:48;;;;;;;10.70;7.47;;;11.60;62.80;;;;;;4980955;28;20050;-43
2022/04/25 08:07:16;;;;;;;12.85;7.97;;;11.60;62.80;;;;;;4983369;28;20407;-44
2022/04/25 08:09:45;;;;;;;8.73;7.07;;;11.60;62.80;;;;;;4983120;28;20345;-44
2022/04/25 08:17:59;;;;;;;9.20;6.72;;;11.60;62.90;;;;;;4988530;28;20061;-44
2022/04/25 08:20:28;;;;;;;11.18;7.40;;;11.70;63.00;;;;;;4981760;28;20058;-44
2022/04/25 08:22:56;;;;;;;8.45;6.70;;;11.70;62.90;;;;;;4982243;28;20058;-45
2022/04/25 08:25:25;;;;;;;7.68;6.68;;;11.70;62.80;;;;;;4983328;28;20051;-45
2022/04/25 08:27:53;;;;;;;9.90;7.15;;;11.80;62.90;;;;;;4983508;28;20057;-44
2022/04/25 08:30:21;;;;;;;8.38;6.22;;;11.80;62.80;;;;;;4984015;28;20406;-43
2022/04/25 08:32:49;;;;;;;13.65;7.93;;;11.90;62.80;;;;;;4981982;28;20422;-44
2022/04/25 08:35:16;;;;;;;9.80;7.05;;;11.90;62.90;;;;;;4982070;28;20054;-44
2022/04/25 08:37:44;;;;;;;10.95;6.78;;;12.00;62.50;;;;;;4981993;28;20506;-45
2022/04/25 08:40:11;;;;;;;10.43;7.57;;;12.10;62.00;;;;;;4979900;28;20418;-44
2022/04/25 08:42:41;;;;;;;9.43;6.72;;;12.10;61.50;;;;;;4982456;28;20134;-44
2022/04/25 08:45:10;;;;;;;9.50;7.40;;;12.20;61.20;;;;;;4980824;28;20054;-47
2022/04/25 08:47:43;;;;;;;10.93;7.55;;;12.20;61.10;;;;;;4982349;28;20563;-44
2022/04/25 08:50:11;;;;;;;10.48;7.55;;;12.30;61.20;;;;;;4983158;28;20555;-44
2022/04/25 08:52:40;;;;;;;12.27;7.90;;;12.30;60.80;;;;;;4981753;28;20062;-45
2022/04/25 08:55:08;;;;;;;11.38;8.75;;;12.30;60.70;;;;;;4983270;28;20065;-44
2022/04/25 08:57:37;;;;;;;11.32;9.02;;;12.40;60.70;;;;;;4981965;28;20054;-44
2022/04/25 09:00:08;;;;;;;12.15;9.32;;;12.40;60.50;;;;;;4982652;28;20061;-44
2022/04/25 09:02:38;;;;;;;14.88;9.95;;;12.40;60.40;;;;;;4980664;28;20414;-44
2022/04/25 09:05:06;;;;;;;13.90;9.55;;;12.50;60.40;;;;;;4980840;28;20494;-44
2022/04/25 09:07:34;;;;;;;12.20;9.18;;;12.50;60.50;;;;;;4982501;28;20695;-44
2022/04/25 09:10:02;;;;;;;15.13;10.27;;;12.50;60.60;;;;;;4981680;28;20055;-45
2022/04/25 09:12:31;;;;;;;14.98;10.48;;;12.60;60.70;;;;;;4982251;28;20054;-44
2022/04/25 09:14:59;;;;;;;13.77;10.10;;;12.70;60.90;;;;;;4981899;28;20061;-45
2022/04/25 09:17:29;;;;;;;15.60;11.35;;;12.70;60.30;;;;;;4980776;28;20058;-44
2022/04/25 09:19:56;;;;;;;15.07;10.80;;;12.80;59.90;;;;;;4980805;28;20050;-46
2022/04/25 09:22:32;;;;;;;12.43;8.93;;;12.80;59.80;;;;;;4981366;28;20410;-44
2022/04/25 09:25:08;;;;;;;13.18;9.43;;;12.90;59.90;;;;;;4982026;28;20061;-44
2022/04/25 09:27:36;;;;;;;15.25;9.52;;;12.90;60.10;;;;;;4980932;28;20073;-48
2022/04/25 09:30:14;;;;;;;15.00;11.75;;;13.00;60.30;;;;;;4981995;28;20406;-44
2022/04/25 09:32:44;;;;;;;14.23;11.38;;;13.00;59.90;;;;;;4979450;28;20065;-44
2022/04/25 09:35:29;;;;;;;15.10;11.70;;;13.00;59.80;;;;;;4980457;28;20054;-44
2022/04/25 09:37:58;;;;;;;18.60;12.23;;;13.10;60.30;;;;;;4980718;28;20058;-50
2022/04/25 09:40:29;;;;;;;14.48;11.43;;;13.10;60.20;;;;;;4975934;28;20485;-44
2022/04/25 09:43:08;;;;;;;14.10;10.65;;;13.20;60.30;;;;;;4978228;28;20414;-44
2022/04/25 09:45:40;;;;;;;15.88;11.65;;;13.30;60.80;;;;;;4972923;28;20047;-44
2022/04/25 09:48:14;;;;;;;18.27;13.98;;;13.40;60.80;;;;;;4973895;28;20077;-44
2022/04/25 09:50:41;;;;;;;15.70;12.45;;;13.60;59.50;;;;;;4977977;28;20066;-44
2022/04/25 09:53:10;;;;;;;13.73;11.10;;;13.70;59.00;;;;;;4979291;28;20065;-44
2022/04/25 09:55:39;;;;;;;15.90;12.80;;;13.80;58.90;;;;;;4979867;28;20388;-44
2022/04/25 09:58:18;;;;;;;16.80;13.38;;;13.80;58.80;;;;;;4980436;28;20058;-44
2022/04/25 10:00:46;;;;;;;14.27;11.77;;;13.90;58.40;;;;;;4977702;28;21178;-48
2022/04/25 10:03:17;;;;;;;12.55;10.35;;;14.10;58.40;;;;;;4975740;28;20058;-44
2022/04/25 10:05:47;;;;;;;12.90;11.07;;;14.20;58.30;;;;;;4981133;28;20062;-44
2022/04/25 10:08:16;;;;;;;11.68;9.88;;;14.20;58.30;;;;;;4982773;28;20062;-44
2022/04/25 10:10:47;;;;;;;12.00;9.13;;;14.30;58.30;;;;;;4981175;28;20417;-44
2022/04/25 10:13:16;;;;;;;13.57;10.43;;;14.40;58.10;;;;;;4978643;28;20502;-44
2022/04/25 10:15:45;;;;;;;11.73;9.23;;;14.50;57.60;;;;;;4981027;28;20061;-44
2022/04/25 10:18:13;;;;;;;10.60;8.40;;;14.60;57.10;;;;;;4980158;28;20053;-44
2022/04/25 10:20:44;;;;;;;10.63;8.40;;;14.70;57.30;;;;;;4982271;28;20050;-47
2022/04/25 10:23:14;;;;;;;10.18;8.02;;;14.80;56.50;;;;;;4978353;28;20081;-45
2022/04/25 10:25:48;;;;;;;10.55;8.02;;;14.90;56.30;;;;;;4974071;28;20051;-44
2022/04/25 10:28:20;;;;;;;12.23;9.38;;;15.00;56.10;;;;;;4973848;28;20097;-44
2022/04/25 10:30:50;;;;;;;10.63;8.50;;;15.10;55.90;;;;;;4980815;28;20054;-44
2022/04/25 10:33:19;;;;;;;9.43;7.35;;;15.10;55.50;;;;;;4976464;28;20069;-47
2022/04/25 10:35:49;;;;;;;7.75;6.80;;;15.30;55.40;;;;;;4981146;28;21289;-46
2022/04/25 10:38:51;;;;;;;8.25;6.85;;;15.30;55.20;;;;;;4979419;28;20058;-45
2022/04/25 10:44:49;;;;;;;10.35;6.60;;;15.50;54.60;;;;;;4985381;28;20061;-44
2022/04/25 10:47:18;;;;;;;6.88;5.97;;;15.60;54.30;;;;;;4981725;28;20050;-44
2022/04/25 10:49:47;;;;;;;9.57;6.38;;;15.60;54.50;;;;;;4979920;28;20057;-45
2022/04/25 10:52:56;;;;;;;7.43;5.90;;;15.70;54.20;;;;;;4978206;28;20070;-44
2022/04/25 10:55:38;;;;;;;7.63;5.90;;;15.70;53.60;;;;;;4979164;28;20061;-47
2022/04/25 10:58:22;;;;;;;6.82;5.57;;;15.70;53.40;;;;;;4980626;28;20065;-44
2022/04/25 11:00:54;;;;;;;6.25;5.15;;;15.80;52.90;;;;;;4981350;28;20050;-49
2022/04/25 11:03:27;;;;;;;6.13;4.95;;;15.80;52.80;;;;;;4976638;28;20077;-44
2022/04/25 11:05:56;;;;;;;5.15;3.80;;;15.90;52.80;;;;;;4976576;28;20042;-49
2022/04/25 11:08:33;;;;;;;5.03;4.00;;;16.00;52.70;;;;;;4974178;28;20524;-44
2022/04/25 11:11:04;;;;;;;4.75;3.53;;;16.00;52.30;;;;;;4977636;28;20968;-45
2022/04/25 11:13:35;;;;;;;4.93;3.83;;;16.10;52.40;;;;;;4978711;28;20062;-44
2022/04/25 11:16:17;;;;;;;4.13;3.22;;;16.20;52.40;;;;;;4980467;28;20062;-46
2022/04/25 11:18:45;;;;;;;3.05;2.75;;;16.20;51.30;;;;;;4974870;28;20706;-47
2022/04/25 11:21:16;;;;;;;3.75;3.00;;;16.30;51.60;;;;;;4980757;28;20066;-43
2022/04/25 11:23:52;;;;;;;5.38;3.22;;;16.30;51.10;;;;;;4979836;28;20574;-44
2022/04/25 11:26:57;;;;;;;3.90;3.50;;;16.40;50.80;;;;;;4982236;28;20054;-44
2022/04/25 11:29:25;;;;;;;3.70;3.30;;;16.40;50.70;;;;;;4981405;28;20054;-45
2022/04/25 11:31:52;;;;;;;5.20;3.85;;;16.40;51.10;;;;;;4981305;28;20391;-45
2022/04/25 11:34:23;;;;;;;4.88;3.40;;;16.40;51.00;;;;;;4980882;28;20058;-44
2022/04/25 11:36:50;;;;;;;4.00;3.30;;;16.40;50.80;;;;;;4975345;28;20046;-43
2022/04/25 11:42:07;;;;;;;5.03;4.13;;;16.50;50.40;;;;;;4979100;28;20061;-44
2022/04/25 11:44:38;;;;;;;5.53;3.70;;;16.50;50.40;;;;;;4982655;28;20054;-44
2022/04/25 11:47:07;;;;;;;4.18;3.55;;;16.50;50.20;;;;;;4977936;28;20062;-45
2022/04/25 11:49:37;;;;;;;4.20;3.67;;;16.60;50.00;;;;;;4974297;28;20057;-44
2022/04/25 11:52:05;;;;;;;5.20;3.10;;;16.60;50.00;;;;;;4973523;28;20058;-45
2022/04/25 11:54:34;;;;;;;3.75;3.10;;;16.60;50.10;;;;;;4975274;28;20414;-48
2022/04/25 11:57:03;;;;;;;4.88;3.47;;;16.70;49.80;;;;;;4981793;28;20525;-48
2022/04/25 11:59:31;;;;;;;4.45;3.53;;;16.70;49.80;;;;;;4981735;28;20418;-45
2022/04/25 12:01:59;;;;;;;3.83;3.33;;;16.80;49.50;;;;;;4979983;28;20549;-45
2022/04/25 12:04:28;;;;;;;5.00;3.40;;;16.80;49.30;;;;;;4976996;28;20068;-46
2022/04/25 12:06:58;;;;;;;4.25;3.10;;;16.90;49.20;;;;;;4982962;28;20577;-44
2022/04/25 12:17:48;;;;;;;5.50;3.08;;;17.00;48.80;;;;;;4973601;28;20061;-44
2022/04/25 12:20:18;;;;;;;4.20;3.35;;;17.00;48.80;;;;;;4987911;28;20483;-44
2022/04/25 12:22:52;;;;;;;3.10;2.65;;;17.00;48.70;;;;;;4985269;28;20054;-45
2022/04/25 12:25:22;;;;;;;5.63;3.10;;;17.00;48.60;;;;;;4985657;28;20418;-44
2022/04/25 12:28:08;;;;;;;4.60;3.65;;;17.00;48.70;;;;;;4983310;28;20050;-45
2022/04/25 12:30:49;;;;;;;4.20;2.97;;;17.10;48.30;;;;;;4987280;28;20693;-44
2022/04/25 12:33:19;;;;;;;4.82;3.50;;;17.10;48.30;;;;;;4984529;28;20061;-46
2022/04/25 12:35:48;;;;;;;3.95;2.90;;;17.20;48.50;;;;;;4985803;28;20057;-44
2022/04/25 12:38:40;;;;;;;3.70;3.40;;;17.20;48.50;;;;;;4983359;28;21470;-43
2022/04/25 12:41:10;;;;;;;5.75;3.63;;;17.30;48.00;;;;;;4987180;28;20054;-44
2022/04/25 12:43:42;;;;;;;4.07;3.35;;;17.30;48.00;;;;;;4986219;28;20068;-44
2022/04/25 12:46:10;;;;;;;5.43;3.30;;;17.30;47.80;;;;;;4988203;28;20054;-44
2022/04/25 12:48:56;;;;;;;4.80;3.20;;;17.30;47.70;;;;;;4985424;28;20165;-45
2022/04/25 12:51:31;;;;;;;3.33;2.85;;;17.40;47.70;;;;;;4980830;28;20065;-46
2022/04/25 12:53:59;;;;;;;3.70;3.00;;;17.40;48.30;;;;;;4982951;28;20062;-44
2022/04/25 12:56:28;;;;;;;6.40;3.42;;;17.40;47.70;;;;;;4984005;28;20058;-45
2022/04/25 12:58:57;;;;;;;3.72;3.38;;;17.40;47.60;;;;;;4981818;28;20513;-44
2022/04/25 13:01:33;;;;;;;5.75;3.17;;;17.40;47.60;;;;;;4984531;28;20059;-45
2022/04/25 13:04:08;;;;;;;4.03;3.40;;;17.40;47.20;;;;;;4983127;28;20058;-44
2022/04/25 13:06:37;;;;;;;3.50;3.20;;;17.40;47.00;;;;;;4984666;28;20054;-46
2022/04/25 13:09:06;;;;;;;4.30;3.15;;;17.40;47.40;;;;;;4984635;28;20069;-44
2022/04/25 13:11:33;;;;;;;4.10;3.28;;;17.40;47.80;;;;;;4984695;28;20054;-45
2022/04/25 13:14:03;;;;;;;4.55;3.40;;;17.50;48.00;;;;;;4984018;28;20054;-44
2022/04/25 13:16:31;;;;;;;3.15;2.63;;;17.40;47.80;;;;;;4984578;28;20058;-44
2022/04/25 13:18:58;;;;;;;2.08;1.80;;;17.50;47.80;;;;;;4977141;28;20695;-44
2022/04/25 13:21:26;;;;;;;2.85;1.67;;;17.50;47.00;;;;;;4972684;28;20054;-46
2022/04/25 13:23:54;;;;;;;1.55;1.10;;;17.50;46.30;;;;;;4965322;28;20138;-45
2022/04/25 13:26:23;;;;;;;2.15;1.60;;;17.40;45.50;;;;;;4966021;28;20061;-45
2022/04/25 13:28:50;;;;;;;3.10;1.73;;;17.40;45.20;;;;;;4967660;28;20051;-45
2022/04/25 13:31:19;;;;;;;2.58;1.48;;;17.40;45.20;;;;;;4966108;28;20069;-48
2022/04/25 13:33:46;;;;;;;1.63;1.30;;;17.40;45.20;;;;;;4968316;28;20070;-44